createdAt,value
2022-10-08T00:02:42.718Z,9.77
2022-10-08T00:05:30.873Z,10.55
2022-10-08T00:08:20.034Z,11.18
2022-10-08T00:11:09.573Z,8.23
2022-10-08T00:13:57.557Z,9.00
2022-10-08T00:16:45.450Z,7.00
2022-10-08T00:19:33.611Z,6.65
2022-10-08T00:22:21.553Z,6.55
2022-10-08T00:25:11.166Z,8.80
2022-10-08T00:28:00.200Z,11.90
2022-10-08T00:30:48.196Z,10.00
2022-10-08T00:33:36.973Z,12.38
2022-10-08T00:36:27.043Z,8.23
2022-10-08T00:39:16.282Z,9.40
2022-10-08T00:42:05.551Z,13.60
2022-10-08T00:44:59.434Z,8.02
2022-10-08T00:47:49.194Z,6.78
2022-10-08T00:50:39.715Z,7.80
2022-10-08T00:53:27.593Z,7.13
2022-10-08T00:56:15.526Z,12.25
2022-10-08T00:59:05.717Z,9.57
2022-10-08T01:01:54.003Z,7.43
2022-10-08T01:04:43.947Z,10.93
2022-10-08T01:07:37.969Z,8.13
2022-10-08T01:10:33.326Z,8.68
2022-10-08T01:13:37.431Z,6.05
2022-10-08T01:16:34.613Z,9.68
2022-10-08T01:19:48.671Z,9.77
2022-10-08T01:22:53.392Z,7.32
2022-10-08T01:25:50.229Z,5.82
2022-10-08T01:28:43.666Z,6.05
2022-10-08T01:31:35.750Z,7.93
2022-10-08T01:34:30.762Z,10.05
2022-10-08T01:37:24.837Z,14.35
2022-10-08T01:40:16.683Z,9.70
2022-10-08T01:43:08.181Z,9.27
2022-10-08T01:46:01.053Z,9.05
2022-10-08T01:48:52.337Z,9.27
2022-10-08T01:51:45.181Z,10.43
2022-10-08T01:54:34.358Z,15.23
2022-10-08T01:57:23.450Z,10.18
2022-10-08T02:00:14.885Z,11.77
2022-10-08T02:03:04.478Z,9.00
2022-10-08T02:05:56.182Z,10.73
2022-10-08T02:08:44.230Z,9.95
2022-10-08T02:11:33.749Z,8.52
2022-10-08T02:14:25.869Z,6.65
2022-10-08T02:17:24.385Z,7.72
2022-10-08T02:20:19.312Z,10.45
2022-10-08T02:23:12.151Z,8.98
2022-10-08T02:26:01.611Z,6.28
2022-10-08T02:28:55.291Z,5.65
2022-10-08T02:31:49.603Z,6.15
2022-10-08T02:34:42.566Z,7.38
2022-10-08T02:37:39.721Z,10.52
2022-10-08T02:40:30.969Z,9.23
2022-10-08T02:43:22.681Z,13.25
2022-10-08T02:46:17.211Z,7.97
2022-10-08T02:49:08.225Z,9.40
2022-10-08T02:52:02.222Z,7.70
2022-10-08T02:54:53.512Z,7.63
2022-10-08T02:57:45.681Z,7.68
2022-10-08T03:00:38.342Z,10.43
2022-10-08T03:03:31.128Z,5.47
2022-10-08T03:06:19.463Z,11.93
2022-10-08T03:09:09.490Z,10.95
2022-10-08T03:11:58.888Z,9.02
2022-10-08T03:14:50.351Z,7.47
2022-10-08T03:17:42.293Z,7.93
2022-10-08T03:20:31.435Z,12.82
2022-10-08T03:23:20.122Z,10.52
2022-10-08T03:26:08.092Z,7.68
2022-10-08T03:28:57.343Z,6.65
2022-10-08T03:31:45.467Z,9.82
2022-10-08T03:34:33.512Z,10.80
2022-10-08T03:37:21.788Z,7.40
2022-10-08T03:40:11.234Z,6.63
2022-10-08T03:42:59.218Z,5.30
2022-10-08T03:45:52.129Z,9.15
2022-10-08T03:48:40.533Z,8.20
2022-10-08T03:51:28.512Z,8.48
2022-10-08T03:54:16.437Z,9.90
2022-10-08T03:57:04.656Z,6.72
2022-10-08T03:59:52.625Z,7.82
2022-10-08T04:02:41.970Z,7.88
2022-10-08T04:05:30.182Z,13.05
2022-10-08T04:08:18.086Z,11.23
2022-10-08T04:11:07.634Z,10.18
2022-10-08T04:13:56.102Z,8.35
2022-10-08T04:16:44.080Z,9.25
2022-10-08T04:19:33.596Z,7.60
2022-10-08T04:22:21.563Z,8.85
2022-10-08T04:25:09.609Z,9.43
2022-10-08T04:27:57.599Z,10.75
2022-10-08T04:30:56.423Z,9.35
2022-10-08T04:33:45.077Z,8.35
2022-10-08T04:36:34.480Z,6.55
2022-10-08T04:39:22.407Z,8.23
2022-10-08T04:42:10.317Z,7.18
2022-10-08T04:44:58.339Z,7.57
2022-10-08T04:47:46.364Z,6.95
2022-10-08T04:50:34.358Z,9.05
2022-10-08T04:53:25.329Z,6.30
2022-10-08T04:56:16.878Z,10.57
2022-10-08T04:59:05.209Z,11.18
2022-10-08T05:01:56.714Z,10.73
2022-10-08T05:04:44.725Z,9.25
2022-10-08T05:07:32.696Z,6.82
2022-10-08T05:10:23.773Z,8.07
2022-10-08T05:13:11.767Z,8.35
2022-10-08T05:16:04.157Z,12.82
2022-10-08T05:18:52.802Z,8.60
2022-10-08T05:21:40.696Z,8.82
2022-10-08T05:24:28.661Z,9.25
2022-10-08T05:27:17.981Z,6.13
2022-10-08T05:30:07.044Z,8.10
2022-10-08T05:32:54.995Z,9.30
2022-10-08T05:35:42.938Z,9.77
2022-10-08T05:38:34.792Z,9.55
2022-10-08T05:41:24.963Z,13.38
2022-10-08T05:44:14.359Z,12.35
2022-10-08T05:47:02.201Z,7.20
2022-10-08T05:49:50.177Z,8.30
2022-10-08T05:52:38.102Z,7.82
2022-10-08T05:55:26.383Z,9.80
2022-10-08T05:58:14.342Z,9.05
2022-10-08T06:01:06.663Z,6.40
2022-10-08T06:03:56.447Z,9.45
2022-10-08T06:06:45.291Z,8.95
2022-10-08T06:09:33.198Z,8.20
2022-10-08T06:12:21.261Z,12.50
2022-10-08T06:15:09.752Z,10.85
2022-10-08T06:18:01.921Z,6.95
2022-10-08T06:20:50.123Z,13.68
2022-10-08T06:23:39.209Z,6.20
2022-10-08T06:26:35.159Z,9.07
2022-10-08T06:29:23.947Z,8.10
2022-10-08T06:32:11.881Z,9.23
2022-10-08T06:35:01.230Z,7.72
2022-10-08T06:37:49.151Z,6.75
2022-10-08T06:40:38.984Z,6.57
2022-10-08T06:43:27.109Z,9.18
2022-10-08T06:46:15.310Z,10.57
2022-10-08T06:49:05.915Z,8.00
2022-10-08T06:51:55.149Z,6.30
2022-10-08T06:54:43.093Z,8.00
2022-10-08T06:57:31.063Z,11.15
2022-10-08T07:00:20.156Z,8.40
2022-10-08T07:03:08.036Z,6.60
2022-10-08T07:05:55.955Z,8.85
2022-10-08T07:08:45.425Z,7.43
2022-10-08T07:11:34.980Z,11.60
2022-10-08T07:14:23.329Z,10.57
2022-10-08T07:17:11.399Z,13.02
2022-10-08T07:19:59.516Z,12.98
2022-10-08T07:22:47.975Z,6.82
2022-10-08T07:25:37.509Z,11.75
2022-10-08T07:28:26.384Z,7.45
2022-10-08T07:31:16.442Z,6.30
2022-10-08T07:34:06.203Z,8.90
2022-10-08T07:36:54.232Z,5.47
2022-10-08T07:39:42.068Z,6.40
2022-10-08T07:42:32.547Z,6.68
2022-10-08T07:45:20.553Z,5.38
2022-10-08T07:48:08.617Z,7.72
2022-10-08T07:50:59.928Z,10.73
2022-10-08T07:53:48.206Z,6.30
2022-10-08T07:56:37.699Z,6.18
2022-10-08T07:59:27.243Z,6.53
2022-10-08T08:02:16.314Z,7.30
2022-10-08T08:05:04.340Z,8.13
2022-10-08T08:07:53.389Z,7.30
2022-10-08T08:10:41.633Z,9.02
2022-10-08T08:13:35.926Z,4.93
2022-10-08T08:16:28.153Z,8.05
2022-10-08T08:19:16.078Z,4.85
2022-10-08T08:22:04.010Z,5.53
2022-10-08T08:24:51.903Z,8.95
2022-10-08T08:27:39.782Z,6.55
2022-10-08T08:30:27.589Z,7.47
2022-10-08T08:33:16.860Z,5.00
2022-10-08T08:36:05.587Z,7.28
2022-10-08T08:38:53.755Z,6.93
2022-10-08T08:42:00.196Z,5.57
2022-10-08T08:44:50.340Z,3.72
2022-10-08T08:47:42.054Z,4.28
2022-10-08T08:50:35.065Z,9.38
2022-10-08T08:53:24.074Z,6.45
2022-10-08T08:56:16.963Z,10.77
2022-10-08T08:59:09.353Z,8.52
2022-10-08T09:02:00.386Z,7.55
2022-10-08T09:04:54.889Z,8.75
2022-10-08T09:07:47.910Z,7.53
2022-10-08T09:10:40.163Z,9.05
2022-10-08T09:13:31.332Z,10.00
2022-10-08T09:16:19.653Z,7.72
2022-10-08T09:19:07.945Z,5.22
2022-10-08T09:21:56.259Z,4.45
2022-10-08T09:24:45.471Z,5.00
2022-10-08T09:27:51.258Z,8.20
2022-10-08T09:30:41.393Z,7.53
2022-10-08T09:33:32.135Z,6.93
2022-10-08T09:36:33.948Z,4.75
2022-10-08T09:39:24.700Z,7.90
2022-10-08T09:42:17.220Z,5.50
2022-10-08T09:45:33.354Z,6.45
2022-10-08T09:48:24.331Z,7.90
2022-10-08T09:51:16.561Z,4.40
2022-10-08T09:54:06.428Z,3.05
2022-10-08T09:56:57.766Z,6.03
2022-10-08T09:59:53.900Z,4.35
2022-10-08T10:02:41.945Z,2.38
2022-10-08T10:05:32.006Z,5.50
2022-10-08T10:08:46.606Z,3.78
2022-10-08T10:11:39.555Z,2.40
2022-10-08T10:14:34.351Z,5.65
2022-10-08T10:17:35.860Z,4.10
2022-10-08T10:20:28.318Z,5.28
2022-10-08T10:23:20.867Z,2.50
2022-10-08T10:26:12.676Z,5.78
2022-10-08T10:29:09.491Z,3.88
2022-10-08T10:32:01.188Z,2.55
2022-10-08T10:34:58.638Z,4.88
2022-10-08T10:37:51.967Z,4.28
2022-10-08T10:40:43.876Z,3.30
2022-10-08T10:43:43.827Z,3.05
2022-10-08T10:46:37.644Z,2.80
2022-10-08T10:49:31.778Z,2.15
2022-10-08T10:52:41.506Z,2.22
2022-10-08T10:55:34.125Z,2.80
2022-10-08T10:58:34.519Z,2.47
2022-10-08T11:01:32.139Z,2.95
2022-10-08T11:04:31.206Z,3.75
2022-10-08T11:07:41.646Z,5.40
2022-10-08T11:10:40.365Z,2.28
2022-10-08T11:13:42.063Z,4.82
2022-10-08T11:16:44.842Z,4.05
2022-10-08T11:19:43.939Z,4.15
2022-10-08T11:22:40.284Z,3.90
2022-10-08T11:25:55.216Z,3.80
2022-10-08T11:28:51.171Z,2.65
2022-10-08T11:31:43.421Z,2.35
2022-10-08T11:34:34.784Z,4.13
2022-10-08T11:37:29.051Z,4.07
2022-10-08T11:40:26.843Z,7.95
2022-10-08T11:43:22.494Z,0.68
2022-10-08T11:46:20.734Z,1.75
2022-10-08T11:49:42.198Z,5.60
2022-10-08T11:52:31.645Z,1.88
2022-10-08T11:55:26.398Z,2.05
2022-10-08T11:58:22.024Z,7.18
2022-10-08T12:01:11.629Z,1.92
2022-10-08T12:04:09.770Z,2.17
2022-10-08T12:07:18.334Z,1.23
2022-10-08T12:10:30.880Z,2.28
2022-10-08T12:13:33.840Z,2.88
2022-10-08T12:16:21.906Z,3.80
2022-10-08T12:19:45.546Z,1.67
2022-10-08T12:22:58.586Z,1.02
2022-10-08T12:26:19.302Z,3.25
2022-10-08T12:29:27.986Z,4.47
2022-10-08T12:32:15.985Z,1.67
2022-10-08T12:35:05.609Z,2.10
2022-10-08T12:38:16.762Z,3.53
2022-10-08T12:41:16.641Z,2.22
2022-10-08T12:44:15.332Z,3.63
2022-10-08T12:47:14.450Z,1.40
2022-10-08T12:50:19.527Z,3.35
2022-10-08T12:53:08.726Z,4.45
2022-10-08T12:55:59.299Z,6.15
2022-10-08T12:58:48.962Z,4.72
2022-10-08T13:01:37.185Z,2.42
2022-10-08T13:04:26.810Z,2.08
2022-10-08T13:07:26.797Z,2.15
2022-10-08T13:10:19.985Z,3.63
2022-10-08T13:13:23.561Z,3.72
2022-10-08T13:16:13.815Z,4.25
2022-10-08T13:19:01.908Z,6.68
2022-10-08T13:21:56.861Z,4.20
2022-10-08T13:24:46.193Z,3.53
2022-10-08T13:27:35.146Z,4.05
2022-10-08T13:30:29.208Z,3.28
2022-10-08T13:33:19.751Z,2.38
2022-10-08T13:36:07.780Z,4.05
2022-10-08T13:38:55.724Z,9.32
2022-10-08T13:41:52.455Z,5.93
2022-10-08T13:44:42.050Z,4.93
2022-10-08T13:47:30.402Z,2.55
2022-10-08T13:50:19.212Z,4.25
2022-10-08T13:53:07.770Z,2.47
2022-10-08T13:55:55.835Z,2.78
2022-10-08T13:58:45.123Z,3.38
2022-10-08T14:01:33.089Z,3.35
2022-10-08T14:04:21.045Z,5.60
2022-10-08T14:07:19.118Z,4.00
2022-10-08T14:10:08.321Z,3.20
2022-10-08T14:12:56.252Z,3.83
2022-10-08T14:15:45.545Z,2.92
2022-10-08T14:18:33.511Z,4.53
2022-10-08T14:21:21.429Z,3.85
2022-10-08T14:24:12.066Z,2.65
2022-10-08T14:27:02.967Z,5.55
2022-10-08T14:29:53.991Z,5.03
2022-10-08T14:32:43.702Z,5.60
2022-10-08T14:35:31.700Z,2.72
2022-10-08T14:38:19.643Z,6.22
2022-10-08T14:41:08.214Z,3.13
2022-10-08T14:43:57.087Z,4.45
2022-10-08T14:46:47.225Z,6.93
2022-10-08T14:49:36.581Z,4.03
2022-10-08T14:52:24.654Z,6.95
2022-10-08T14:55:14.035Z,3.10
2022-10-08T14:58:02.185Z,7.90
2022-10-08T15:00:53.897Z,3.58
2022-10-08T15:03:42.069Z,3.90
2022-10-08T15:06:31.506Z,4.00
2022-10-08T15:09:19.456Z,6.63
2022-10-08T15:12:07.702Z,5.55
2022-10-08T15:14:55.768Z,5.13
2022-10-08T15:17:46.577Z,4.53
2022-10-08T15:20:35.064Z,5.05
2022-10-08T15:23:24.859Z,4.18
2022-10-08T15:26:15.166Z,3.75
2022-10-08T15:29:03.440Z,5.00
2022-10-08T15:31:51.831Z,7.32
2022-10-08T15:34:40.630Z,8.02
2022-10-08T15:37:28.520Z,5.93
2022-10-08T15:40:18.213Z,8.20
2022-10-08T15:43:06.066Z,10.27
2022-10-08T15:45:54.161Z,2.47
2022-10-08T15:48:42.568Z,3.20
2022-10-08T15:51:32.024Z,4.45
2022-10-08T15:54:21.038Z,3.78
2022-10-08T15:57:12.625Z,4.32
2022-10-08T16:00:00.749Z,4.38
2022-10-08T16:02:49.098Z,5.68
2022-10-08T16:05:37.395Z,3.38
2022-10-08T16:08:25.359Z,5.90
2022-10-08T16:11:15.986Z,3.85
2022-10-08T16:14:08.412Z,7.97
2022-10-08T16:16:56.672Z,3.28
2022-10-08T16:19:44.657Z,8.20
2022-10-08T16:22:32.606Z,3.53
2022-10-08T16:25:20.492Z,4.15
2022-10-08T16:28:08.669Z,4.32
2022-10-08T16:30:59.094Z,5.65
2022-10-08T16:33:47.725Z,6.35
2022-10-08T16:36:37.294Z,3.58
2022-10-08T16:39:25.441Z,6.57
2022-10-08T16:42:13.621Z,9.32
2022-10-08T16:45:01.640Z,7.82
2022-10-08T16:47:50.912Z,5.15
2022-10-08T16:50:39.955Z,7.10
2022-10-08T16:53:27.822Z,9.30
2022-10-08T16:56:16.202Z,5.13
2022-10-08T16:59:06.530Z,2.63
2022-10-08T17:01:56.490Z,4.88
2022-10-08T17:04:46.086Z,3.70
2022-10-08T17:07:34.511Z,5.00
2022-10-08T17:10:22.557Z,9.05
2022-10-08T17:13:10.449Z,4.50
2022-10-08T17:15:59.917Z,5.55
2022-10-08T17:18:51.169Z,5.85
2022-10-08T17:21:41.228Z,8.93
2022-10-08T17:24:29.297Z,7.30
2022-10-08T17:27:17.437Z,8.35
2022-10-08T17:30:05.988Z,5.05
2022-10-08T17:32:54.061Z,7.82
2022-10-08T17:35:42.094Z,7.93
2022-10-08T17:38:31.724Z,7.68
2022-10-08T17:41:21.575Z,5.75
2022-10-08T17:44:10.657Z,6.03
2022-10-08T17:46:58.662Z,9.07
2022-10-08T17:49:46.620Z,5.28
2022-10-08T17:52:34.695Z,10.77
2022-10-08T17:55:23.981Z,8.85
2022-10-08T17:58:13.357Z,11.07
2022-10-08T18:01:08.824Z,9.35
2022-10-08T18:03:58.686Z,9.23
2022-10-08T18:06:48.807Z,5.55
2022-10-08T18:09:36.950Z,6.13
2022-10-08T18:12:26.601Z,9.50
2022-10-08T18:15:14.518Z,6.70
2022-10-08T18:18:05.291Z,8.05
2022-10-08T18:20:54.918Z,9.30
2022-10-08T18:23:43.595Z,8.13
2022-10-08T18:26:34.639Z,10.93
2022-10-08T18:29:24.254Z,8.65
2022-10-08T18:32:12.326Z,8.30
2022-10-08T18:35:00.294Z,11.80
2022-10-08T18:37:48.408Z,7.03
2022-10-08T18:40:37.584Z,5.95
2022-10-08T18:43:25.607Z,7.38
2022-10-08T18:46:16.271Z,9.35
2022-10-08T18:49:05.037Z,7.85
2022-10-08T18:51:53.064Z,12.05
2022-10-08T18:54:41.006Z,5.68
2022-10-08T18:57:29.427Z,6.25
2022-10-08T19:00:18.173Z,5.13
2022-10-08T19:03:07.600Z,6.53
2022-10-08T19:05:55.797Z,7.57
2022-10-08T19:08:49.065Z,7.55
2022-10-08T19:11:46.837Z,4.53
2022-10-08T19:14:38.659Z,6.28
2022-10-08T19:17:31.105Z,10.95
2022-10-08T19:20:20.824Z,10.38
2022-10-08T19:23:11.078Z,8.23
2022-10-08T19:25:59.263Z,7.65
2022-10-08T19:28:49.281Z,8.00
2022-10-08T19:31:37.563Z,9.35
2022-10-08T19:34:27.805Z,8.02
2022-10-08T19:37:17.216Z,6.50
2022-10-08T19:40:06.475Z,10.40
2022-10-08T19:42:55.863Z,6.00
2022-10-08T19:45:43.870Z,7.15
2022-10-08T19:48:35.128Z,7.13
2022-10-08T19:51:24.067Z,7.93
2022-10-08T19:54:13.895Z,8.57
2022-10-08T19:57:02.109Z,9.60
2022-10-08T19:59:50.328Z,6.55
2022-10-08T20:02:38.296Z,9.18
2022-10-08T20:05:26.311Z,12.15
2022-10-08T20:08:15.390Z,6.57
2022-10-08T20:11:05.671Z,9.88
2022-10-08T20:13:54.597Z,7.35
2022-10-08T20:16:43.969Z,5.75
2022-10-08T20:19:32.095Z,7.43
2022-10-08T20:22:20.236Z,8.98
2022-10-08T20:25:08.458Z,8.00
2022-10-08T20:27:57.854Z,9.80
2022-10-08T20:30:45.820Z,6.55
2022-10-08T20:33:33.992Z,8.75
2022-10-08T20:36:21.958Z,5.63
2022-10-08T20:39:11.904Z,8.02
2022-10-08T20:42:00.485Z,12.18
2022-10-08T20:44:50.095Z,11.73
2022-10-08T20:47:38.396Z,13.98
2022-10-08T20:50:26.469Z,8.63
2022-10-08T20:53:14.817Z,12.35
2022-10-08T20:56:06.642Z,6.38
2022-10-08T20:58:55.472Z,7.78
2022-10-08T21:01:45.808Z,9.45
2022-10-08T21:04:34.209Z,8.63
2022-10-08T21:07:22.338Z,9.35
2022-10-08T21:10:11.072Z,10.23
2022-10-08T21:12:59.437Z,5.72
2022-10-08T21:15:48.008Z,11.13
2022-10-08T21:18:38.287Z,6.60
2022-10-08T21:21:31.566Z,11.35
2022-10-08T21:24:19.918Z,11.40
2022-10-08T21:27:07.869Z,11.45
2022-10-08T21:29:57.571Z,15.98
2022-10-08T21:32:46.696Z,18.40
2022-10-08T21:35:38.405Z,17.92
2022-10-08T21:38:26.418Z,15.75
2022-10-08T21:41:16.316Z,14.05
2022-10-08T21:44:06.536Z,13.20
2022-10-08T21:46:54.436Z,11.68
2022-10-08T21:49:44.994Z,11.68
2022-10-08T21:52:34.851Z,16.77
2022-10-08T21:55:23.454Z,16.13
2022-10-08T21:58:11.494Z,12.45
2022-10-08T22:01:03.804Z,12.73
2022-10-08T22:03:59.493Z,10.80
2022-10-08T22:06:49.625Z,12.40
2022-10-08T22:09:39.132Z,15.68
2022-10-08T22:12:27.771Z,16.65
2022-10-08T22:15:16.261Z,23.27
2022-10-08T22:18:04.346Z,21.92
2022-10-08T22:20:53.031Z,18.10
2022-10-08T22:23:41.869Z,16.85
2022-10-08T22:26:33.098Z,18.73
2022-10-08T22:29:21.057Z,16.70
2022-10-08T22:32:08.980Z,18.77
2022-10-08T22:34:56.890Z,11.85
2022-10-08T22:37:44.749Z,12.30
2022-10-08T22:40:32.594Z,10.20
2022-10-08T22:43:21.846Z,8.50
2022-10-08T22:46:11.964Z,6.25
2022-10-08T22:49:01.381Z,12.63
2022-10-08T22:51:49.396Z,5.80
2022-10-08T22:54:37.227Z,12.07
2022-10-08T22:57:25.179Z,10.13
2022-10-08T23:00:15.943Z,10.98
2022-10-08T23:03:04.217Z,10.60
2022-10-08T23:06:01.954Z,10.93
2022-10-08T23:08:54.468Z,9.98
2022-10-08T23:11:42.452Z,8.73
2022-10-08T23:14:30.389Z,7.03
2022-10-08T23:17:19.686Z,11.85
2022-10-08T23:20:08.256Z,7.93
2022-10-08T23:22:56.173Z,14.07
2022-10-08T23:25:53.630Z,5.15
2022-10-08T23:28:42.459Z,6.30
2022-10-08T23:31:31.784Z,8.63
2022-10-08T23:34:22.207Z,7.75
2022-10-08T23:37:10.268Z,6.97
2022-10-08T23:39:58.314Z,13.10
2022-10-08T23:42:46.629Z,6.65
2022-10-08T23:45:34.833Z,7.35
2022-10-08T23:48:23.925Z,7.57
2022-10-08T23:51:14.466Z,8.60
2022-10-08T23:54:02.738Z,9.57
2022-10-08T23:56:50.701Z,8.52
2022-10-08T23:59:38.609Z,6.07
